createdAt,value
2018-08-18T04:31:54.795Z,97.60
2018-08-18T04:34:22.886Z,95.47
2018-08-18T04:36:51.000Z,90.00
2018-08-18T04:39:19.113Z,89.60
2018-08-18T04:41:47.229Z,88.43
2018-08-18T04:44:15.353Z,82.23
2018-08-18T04:46:43.468Z,88.03
2018-08-18T04:49:11.552Z,89.20
2018-08-18T04:51:39.727Z,79.70
2018-08-18T04:54:08.167Z,75.70
2018-08-18T04:56:36.303Z,82.60
2018-08-18T04:59:04.413Z,80.03
2018-08-18T05:01:32.516Z,78.10
2018-08-18T05:04:05.882Z,71.80
2018-08-18T05:06:34.625Z,73.53
2018-08-18T05:09:04.637Z,72.63
2018-08-18T05:11:32.834Z,69.70
2018-08-18T05:14:00.886Z,65.20
2018-08-18T05:16:28.977Z,55.07
2018-08-18T05:18:57.172Z,57.10
2018-08-18T05:21:25.334Z,59.00
2018-08-18T05:23:53.875Z,51.90
2018-08-18T05:26:22.144Z,51.17
2018-08-18T05:28:50.325Z,50.77
2018-08-18T05:31:19.396Z,48.57
2018-08-18T05:33:47.802Z,55.53
2018-08-18T05:36:15.873Z,48.73
2018-08-18T05:38:43.991Z,41.60
2018-08-18T05:41:12.635Z,44.63
2018-08-18T05:43:40.746Z,47.67
2018-08-18T05:46:08.940Z,45.13
2018-08-18T05:48:37.044Z,49.17
2018-08-18T05:51:05.192Z,42.27
2018-08-18T05:53:35.092Z,43.77
2018-08-18T05:56:03.909Z,41.37
2018-08-18T05:58:54.983Z,43.70
2018-08-18T06:01:27.324Z,40.50
2018-08-18T06:04:02.143Z,47.13
2018-08-18T06:06:30.318Z,34.13
2018-08-18T06:08:58.412Z,39.40
2018-08-18T06:11:26.516Z,43.07
2018-08-18T06:13:54.636Z,43.17
2018-08-18T06:16:22.813Z,35.17
2018-08-18T06:18:50.896Z,39.67
2018-08-18T06:21:19.000Z,35.57
2018-08-18T06:23:47.112Z,33.23
2018-08-18T06:26:15.205Z,35.40
2018-08-18T06:28:43.312Z,34.67
2018-08-18T06:31:11.412Z,35.10
2018-08-18T06:33:39.541Z,32.10
2018-08-18T06:36:07.624Z,37.10
2018-08-18T06:38:35.775Z,36.50
2018-08-18T06:41:04.100Z,35.13
2018-08-18T06:43:33.407Z,36.37
2018-08-18T06:46:01.805Z,31.33
2018-08-18T06:48:32.533Z,34.20
2018-08-18T06:51:00.624Z,39.73
2018-08-18T06:53:29.728Z,41.33
2018-08-18T06:55:58.637Z,37.53
2018-08-18T06:58:26.742Z,38.60
2018-08-18T07:00:54.865Z,36.03
2018-08-18T07:03:34.361Z,34.47
2018-08-18T07:06:03.193Z,30.93
2018-08-18T07:08:38.334Z,28.23
2018-08-18T07:11:06.671Z,31.47
2018-08-18T07:13:34.888Z,32.57
2018-08-18T07:16:02.984Z,31.53
2018-08-18T07:18:31.134Z,30.33
2018-08-18T07:20:59.244Z,29.80
2018-08-18T07:23:27.382Z,29.23
2018-08-18T07:25:57.045Z,30.47
2018-08-18T07:28:25.179Z,27.67
2018-08-18T07:30:53.586Z,27.23
2018-08-18T07:33:21.921Z,29.67
2018-08-18T07:35:50.011Z,28.80
2018-08-18T07:38:18.180Z,32.90
2018-08-18T07:40:47.413Z,28.40
2018-08-18T07:43:19.903Z,25.13
2018-08-18T07:45:48.728Z,26.93
2018-08-18T07:48:16.842Z,31.37
2018-08-18T07:50:45.287Z,31.93
2018-08-18T07:53:13.530Z,23.40
2018-08-18T07:55:41.652Z,26.50
2018-08-18T07:58:11.904Z,29.93
2018-08-18T08:00:40.488Z,27.83
2018-08-18T08:03:09.767Z,29.70
2018-08-18T08:05:37.969Z,29.73
2018-08-18T08:08:06.164Z,23.73
2018-08-18T08:10:34.288Z,21.83
2018-08-18T08:13:02.474Z,24.67
2018-08-18T08:15:30.540Z,28.77
2018-08-18T08:17:58.705Z,23.57
2018-08-18T08:20:26.836Z,23.80
2018-08-18T08:22:55.550Z,24.93
2018-08-18T08:25:23.645Z,25.20
2018-08-18T08:27:52.762Z,18.43
2018-08-18T08:30:22.649Z,25.73
2018-08-18T08:32:50.804Z,18.57
2018-08-18T08:35:19.083Z,19.13
2018-08-18T08:37:47.680Z,24.33
2018-08-18T08:40:17.305Z,21.63
2018-08-18T08:42:45.463Z,25.53
2018-08-18T08:45:16.489Z,20.47
2018-08-18T08:47:45.477Z,25.67
2018-08-18T08:50:16.581Z,20.17
2018-08-18T08:52:49.000Z,19.43
2018-08-18T08:55:18.648Z,21.73
2018-08-18T08:57:46.896Z,19.90
2018-08-18T09:00:15.044Z,24.87
2018-08-18T09:02:43.292Z,20.03
2018-08-18T09:05:11.440Z,21.20
2018-08-18T09:07:39.928Z,23.47
2018-08-18T09:10:09.291Z,18.80
2018-08-18T09:12:37.920Z,22.17
2018-08-18T09:15:06.983Z,26.57
2018-08-18T09:17:35.149Z,22.30
2018-08-18T09:20:03.390Z,29.03
2018-08-18T09:22:31.734Z,23.27
2018-08-18T09:25:05.100Z,28.80
2018-08-18T09:27:34.658Z,31.30
2018-08-18T09:30:02.768Z,31.20
2018-08-18T09:32:30.885Z,25.47
2018-08-18T09:34:59.821Z,24.67
2018-08-18T09:37:28.021Z,28.43
2018-08-18T09:39:56.134Z,22.03
2018-08-18T09:42:24.265Z,27.80
2018-08-18T09:44:53.604Z,27.83
2018-08-18T09:47:21.711Z,25.63
2018-08-18T09:49:49.817Z,28.67
2018-08-18T09:52:19.320Z,23.40
2018-08-18T09:54:47.445Z,29.57
2018-08-18T09:57:15.667Z,20.67
2018-08-18T09:59:43.764Z,20.30
2018-08-18T10:02:13.094Z,21.10
2018-08-18T10:04:41.220Z,18.80
2018-08-18T10:07:09.320Z,22.93
2018-08-18T10:09:37.402Z,18.43
2018-08-18T10:12:05.762Z,21.63
2018-08-18T10:14:33.884Z,18.83
2018-08-18T10:17:01.982Z,20.00
2018-08-18T10:19:31.516Z,22.83
2018-08-18T10:22:00.300Z,20.33
2018-08-18T10:24:28.555Z,26.87
2018-08-18T10:27:04.061Z,20.70
2018-08-18T10:29:32.229Z,15.07
2018-08-18T10:32:00.560Z,27.00
2018-08-18T10:34:29.897Z,19.43
2018-08-18T10:37:00.560Z,20.97
2018-08-18T10:39:28.640Z,17.63
2018-08-18T10:42:12.744Z,15.93
2018-08-18T10:44:47.709Z,16.57
2018-08-18T10:47:17.061Z,18.73
2018-08-18T10:49:56.638Z,15.70
2018-08-18T10:52:37.092Z,15.90
2018-08-18T10:55:08.135Z,16.10
2018-08-18T10:57:48.708Z,17.10
2018-08-18T11:00:18.121Z,12.20
2018-08-18T11:02:47.340Z,15.60
2018-08-18T11:05:16.081Z,17.97
2018-08-18T11:07:52.976Z,13.63
2018-08-18T11:10:21.840Z,17.43
2018-08-18T11:12:49.933Z,12.70
2018-08-18T11:15:18.167Z,14.37
2018-08-18T11:17:46.236Z,12.90
2018-08-18T11:20:16.032Z,11.47
2018-08-18T11:22:49.790Z,16.97
2018-08-18T11:25:18.804Z,11.47
2018-08-18T11:27:47.061Z,15.40
2018-08-18T11:30:15.210Z,12.60
2018-08-18T11:32:43.329Z,15.10
2018-08-18T11:35:11.487Z,11.80
2018-08-18T11:37:52.691Z,13.13
2018-08-18T11:40:21.598Z,11.57
2018-08-18T11:42:50.352Z,12.20
2018-08-18T11:45:19.606Z,11.33
2018-08-18T11:47:58.952Z,11.30
2018-08-18T11:50:27.977Z,14.67
2018-08-18T11:52:56.221Z,11.93
2018-08-18T11:55:24.380Z,13.80
2018-08-18T11:57:53.621Z,13.53
2018-08-18T12:00:21.738Z,13.70
2018-08-18T12:02:50.893Z,13.30
2018-08-18T12:05:19.040Z,18.20
2018-08-18T12:07:48.952Z,11.13
2018-08-18T12:10:17.416Z,15.60
2018-08-18T12:12:45.545Z,11.93
2018-08-18T12:15:13.640Z,14.10
2018-08-18T12:17:54.305Z,8.90
2018-08-18T12:20:22.913Z,10.53
2018-08-18T12:22:52.568Z,8.50
2018-08-18T12:25:20.662Z,10.30
2018-08-18T12:27:48.779Z,11.27
2018-08-18T12:30:29.860Z,9.50
2018-08-18T12:32:58.260Z,11.93
2018-08-18T12:35:31.377Z,9.50
2018-08-18T12:37:59.712Z,8.07
2018-08-18T12:40:27.836Z,9.03
2018-08-18T12:42:55.923Z,12.13
2018-08-18T12:45:24.080Z,13.30
2018-08-18T12:47:55.553Z,9.60
2018-08-18T12:50:23.657Z,9.40
2018-08-18T12:52:51.738Z,11.10
2018-08-18T12:55:20.469Z,9.80
2018-08-18T12:57:49.709Z,10.60
2018-08-18T13:00:18.219Z,11.20
2018-08-18T13:02:48.965Z,11.13
2018-08-18T13:05:17.943Z,8.67
2018-08-18T13:07:46.240Z,9.23
2018-08-18T13:10:20.424Z,8.83
2018-08-18T13:12:49.065Z,8.17
2018-08-18T13:15:17.697Z,6.80
2018-08-18T13:17:45.789Z,8.63
2018-08-18T13:20:20.470Z,11.10
2018-08-18T13:22:48.919Z,10.03
2018-08-18T13:25:17.058Z,8.20
2018-08-18T13:27:49.204Z,11.20
2018-08-18T13:30:17.977Z,8.70
2018-08-18T13:32:46.088Z,8.67
2018-08-18T13:35:14.239Z,11.57
2018-08-18T13:37:42.362Z,12.63
2018-08-18T13:40:11.817Z,8.40
2018-08-18T13:42:40.560Z,7.80
2018-08-18T13:45:09.252Z,7.93
2018-08-18T13:47:44.145Z,7.40
2018-08-18T13:50:14.548Z,6.37
2018-08-18T13:52:48.840Z,8.53
2018-08-18T13:55:16.939Z,8.80
2018-08-18T13:57:45.064Z,6.90
2018-08-18T14:00:15.065Z,11.60
2018-08-18T14:02:43.881Z,8.30
2018-08-18T14:05:21.506Z,10.30
2018-08-18T14:07:57.418Z,6.40
2018-08-18T14:10:25.492Z,6.57
2018-08-18T14:12:54.500Z,13.40
2018-08-18T14:15:22.818Z,7.67
2018-08-18T14:18:00.755Z,9.40
2018-08-18T14:20:29.641Z,5.43
2018-08-18T14:23:03.247Z,6.47
2018-08-18T14:25:31.266Z,9.50
2018-08-18T14:28:03.421Z,8.07
2018-08-18T14:30:33.918Z,8.00
2018-08-18T14:33:02.132Z,7.80
2018-08-18T14:35:30.222Z,6.73
2018-08-18T14:37:58.332Z,9.60
2018-08-18T14:40:26.494Z,7.13
2018-08-18T14:42:54.613Z,6.10
2018-08-18T14:45:24.628Z,6.73
2018-08-18T14:47:52.721Z,9.47
2018-08-18T14:50:25.384Z,5.87
2018-08-18T14:52:53.479Z,5.90
2018-08-18T14:55:21.625Z,6.10
2018-08-18T14:57:54.924Z,8.00
2018-08-18T15:00:23.049Z,16.83
2018-08-18T15:02:51.168Z,6.23
2018-08-18T15:05:19.421Z,8.73
2018-08-18T15:07:52.727Z,6.50
2018-08-18T15:10:36.562Z,5.50
2018-08-18T15:13:05.306Z,5.90
2018-08-18T15:15:34.130Z,5.43
2018-08-18T15:18:04.356Z,6.00
2018-08-18T15:20:33.505Z,9.57
2018-08-18T15:23:02.380Z,5.10
2018-08-18T15:25:31.647Z,8.90
2018-08-18T15:28:03.224Z,11.53
2018-08-18T15:30:31.826Z,7.30
2018-08-18T15:33:00.172Z,6.10
2018-08-18T15:35:28.358Z,12.30
2018-08-18T15:37:57.337Z,13.37
2018-08-18T15:40:27.716Z,42.93
2018-08-18T15:42:56.644Z,12.33
2018-08-18T15:45:24.817Z,26.40
2018-08-18T15:47:52.960Z,6.83
2018-08-18T15:50:21.545Z,32.57
2018-08-18T15:52:49.789Z,21.90
2018-08-18T15:55:18.029Z,6.40
2018-08-18T15:57:46.180Z,6.97
2018-08-18T16:00:26.532Z,10.03
2018-08-18T16:02:55.328Z,11.87
2018-08-18T16:05:23.472Z,258.67
2018-08-18T16:07:52.169Z,328.03
2018-08-18T16:10:20.264Z,325.77
2018-08-18T16:12:48.849Z,58.83
2018-08-18T16:15:17.061Z,32.23
2018-08-18T16:17:45.193Z,5.93
2018-08-18T16:20:21.688Z,5.20
2018-08-18T16:22:51.200Z,6.90
2018-08-18T16:25:31.568Z,8.00
2018-08-18T16:27:59.657Z,10.00
2018-08-18T16:30:27.812Z,7.17
2018-08-18T16:33:09.606Z,7.03
2018-08-18T16:35:38.989Z,10.73
2018-08-18T16:38:07.459Z,18.60
2018-08-18T16:40:36.022Z,11.00
2018-08-18T16:43:05.483Z,7.33
2018-08-18T16:45:33.978Z,7.80
2018-08-18T16:48:02.902Z,16.33
2018-08-18T16:50:31.593Z,7.37
2018-08-18T16:53:01.256Z,13.30
2018-08-18T16:55:30.452Z,8.30
2018-08-18T16:57:58.676Z,9.90
2018-08-18T17:00:26.785Z,7.03
2018-08-18T17:02:54.905Z,13.27
2018-08-18T17:05:23.020Z,7.17
2018-08-18T17:07:51.137Z,9.73
2018-08-18T17:10:19.270Z,7.77
2018-08-18T17:12:47.368Z,8.70
2018-08-18T17:15:15.505Z,6.97
2018-08-18T17:17:43.589Z,8.30
2018-08-18T17:20:11.729Z,7.40
2018-08-18T17:22:39.840Z,9.70
2018-08-18T17:25:09.133Z,8.53
2018-08-18T17:27:37.281Z,12.67
2018-08-18T17:30:05.743Z,11.20
2018-08-18T17:32:33.810Z,7.07
2018-08-18T17:35:01.903Z,7.00
2018-08-18T17:37:30.061Z,7.90
2018-08-18T17:39:58.256Z,7.70
2018-08-18T17:42:26.357Z,9.00
2018-08-18T17:44:54.440Z,12.13
2018-08-18T17:47:22.570Z,10.43
2018-08-18T17:49:56.661Z,7.60
2018-08-18T17:52:25.094Z,11.50
2018-08-18T17:55:04.620Z,12.53
2018-08-18T17:57:32.909Z,11.43
2018-08-18T18:00:05.406Z,10.50
2018-08-18T18:02:35.909Z,8.67
2018-08-18T18:05:08.014Z,7.87
2018-08-18T18:07:36.119Z,7.87
2018-08-18T18:10:04.249Z,10.57
2018-08-18T18:12:33.508Z,8.37
2018-08-18T18:15:01.550Z,9.93
2018-08-18T18:17:29.664Z,8.03
2018-08-18T18:19:58.932Z,8.10
2018-08-18T18:22:39.864Z,8.70
2018-08-18T18:25:07.985Z,8.77
2018-08-18T18:27:36.095Z,8.40
2018-08-18T18:30:04.340Z,8.70
2018-08-18T18:32:32.495Z,13.30
2018-08-18T18:35:00.601Z,10.03
2018-08-18T18:37:28.661Z,15.93
2018-08-18T18:40:03.455Z,13.73
2018-08-18T18:42:31.573Z,9.87
2018-08-18T18:45:00.014Z,10.80
2018-08-18T18:47:28.768Z,9.77
2018-08-18T18:49:56.852Z,10.00
2018-08-18T18:52:25.005Z,10.20
2018-08-18T18:54:56.208Z,14.20
2018-08-18T18:57:24.806Z,10.00
2018-08-18T19:00:00.400Z,12.17
2018-08-18T19:02:35.938Z,9.67
2018-08-18T19:05:14.136Z,12.57
2018-08-18T19:07:42.274Z,12.30
2018-08-18T19:10:10.368Z,11.90
2018-08-18T19:12:38.509Z,10.03
2018-08-18T19:15:06.640Z,10.50
2018-08-18T19:17:34.789Z,11.60
2018-08-18T19:20:28.604Z,11.87
2018-08-18T19:23:03.085Z,12.80
2018-08-18T19:25:31.656Z,11.40
2018-08-18T19:28:00.098Z,12.10
2018-08-18T19:30:28.237Z,12.40
2018-08-18T19:32:56.346Z,12.00
2018-08-18T19:35:30.000Z,13.60
2018-08-18T19:37:58.127Z,13.87
2018-08-18T19:40:26.242Z,12.33
2018-08-18T19:42:54.412Z,12.80
2018-08-18T19:45:22.587Z,13.03
2018-08-18T19:47:50.862Z,10.70
2018-08-18T19:50:19.044Z,14.37
2018-08-18T19:52:47.181Z,12.10
2018-08-18T19:55:15.325Z,18.40
2018-08-18T19:57:43.453Z,11.30
2018-08-18T20:00:17.891Z,12.50
2018-08-18T20:02:52.450Z,11.00
2018-08-18T20:05:21.542Z,12.17
2018-08-18T20:07:49.841Z,17.80
2018-08-18T20:10:18.003Z,14.37
2018-08-18T20:12:47.156Z,14.50
2018-08-18T20:15:15.893Z,18.07
2018-08-18T20:17:44.320Z,15.70
2018-08-18T20:20:13.355Z,12.60
2018-08-18T20:22:41.889Z,15.63
2018-08-18T20:25:09.994Z,12.93
2018-08-18T20:27:38.112Z,19.33
2018-08-18T20:30:06.208Z,12.83
2018-08-18T20:32:34.317Z,17.13
2018-08-18T20:35:02.421Z,12.00
2018-08-18T20:37:30.532Z,11.63
2018-08-18T20:39:58.660Z,12.63
2018-08-18T20:42:31.032Z,14.57
2018-08-18T20:44:59.488Z,12.60
2018-08-18T20:47:29.952Z,10.80
2018-08-18T20:49:58.269Z,12.27
2018-08-18T20:52:26.917Z,11.70
2018-08-18T20:54:56.109Z,12.33
2018-08-18T20:57:24.224Z,13.33
2018-08-18T20:59:52.621Z,10.70
2018-08-18T21:02:21.039Z,11.30
2018-08-18T21:04:53.456Z,17.20
2018-08-18T21:07:22.310Z,12.00
2018-08-18T21:09:50.417Z,13.40
2018-08-18T21:12:18.592Z,10.73
2018-08-18T21:14:46.766Z,12.70
2018-08-18T21:17:14.851Z,15.00
2018-08-18T21:19:42.970Z,9.73
2018-08-18T21:22:13.262Z,10.90
2018-08-18T21:24:41.472Z,9.47
2018-08-18T21:27:09.602Z,10.30
2018-08-18T21:29:37.750Z,11.43
2018-08-18T21:32:05.841Z,17.30
2018-08-18T21:34:43.700Z,11.60
2018-08-18T21:37:11.808Z,10.00
2018-08-18T21:39:40.009Z,14.80
2018-08-18T21:42:08.117Z,8.93
2018-08-18T21:44:36.233Z,16.23
2018-08-18T21:47:04.328Z,11.07
2018-08-18T21:49:32.429Z,11.30
2018-08-18T21:52:00.535Z,10.77
2018-08-18T21:54:28.720Z,11.90
2018-08-18T21:56:56.894Z,11.67
2018-08-18T21:59:25.071Z,9.47
2018-08-18T22:01:58.160Z,10.67
2018-08-18T22:04:26.348Z,9.03
2018-08-18T22:06:54.416Z,9.10
2018-08-18T22:09:27.416Z,10.40
2018-08-18T22:11:55.569Z,9.80
2018-08-18T22:14:23.741Z,8.40
2018-08-18T22:16:59.917Z,8.80
2018-08-18T22:19:28.929Z,11.87
2018-08-18T22:21:57.043Z,12.30
2018-08-18T22:24:25.178Z,8.40
2018-08-18T22:26:53.243Z,10.80
2018-08-18T22:29:23.998Z,9.50
2018-08-18T22:31:52.433Z,8.77
2018-08-18T22:34:20.524Z,11.40
2018-08-18T22:36:48.779Z,12.17
2018-08-18T22:39:18.229Z,12.00
2018-08-18T22:41:46.325Z,12.73
2018-08-18T22:44:14.436Z,13.07
